createdAt,value
2023-05-12T00:00:28.473Z,10.65
2023-05-12T00:02:57.884Z,10.80
2023-05-12T00:05:27.388Z,11.25
2023-05-12T00:07:56.726Z,9.75
2023-05-12T00:10:30.613Z,11.73
2023-05-12T00:13:00.265Z,11.78
2023-05-12T00:15:29.575Z,10.35
2023-05-12T00:17:58.967Z,14.15
2023-05-12T00:20:28.670Z,11.57
2023-05-12T00:22:58.478Z,10.68
2023-05-12T00:25:27.964Z,12.50
2023-05-12T00:27:57.282Z,10.32
2023-05-12T00:30:26.642Z,11.25
2023-05-12T00:32:56.328Z,7.92
2023-05-12T00:35:25.662Z,8.98
2023-05-12T00:37:55.123Z,8.08
2023-05-12T00:40:24.456Z,9.38
2023-05-12T00:42:53.764Z,7.17
2023-05-12T00:45:23.817Z,8.45
2023-05-12T00:47:53.897Z,8.58
2023-05-12T00:50:23.608Z,7.72
2023-05-12T00:52:53.481Z,8.15
2023-05-12T00:55:22.888Z,7.83
2023-05-12T00:57:52.548Z,7.75
2023-05-12T01:00:23.694Z,8.00
2023-05-12T01:02:53.179Z,6.53
2023-05-12T01:05:23.099Z,8.03
2023-05-12T01:07:53.019Z,9.23
2023-05-12T01:10:23.380Z,9.15
2023-05-12T01:12:52.987Z,8.10
2023-05-12T01:15:22.813Z,10.80
2023-05-12T01:17:54.739Z,10.23
2023-05-12T01:20:26.588Z,9.83
2023-05-12T01:22:56.672Z,9.83
2023-05-12T01:25:30.066Z,9.38
2023-05-12T01:27:59.556Z,10.33
2023-05-12T01:30:29.921Z,10.85
2023-05-12T01:32:59.714Z,8.25
2023-05-12T01:35:29.992Z,11.45
2023-05-12T01:38:01.099Z,8.75
2023-05-12T01:40:30.873Z,11.10
2023-05-12T01:43:02.140Z,8.65
2023-05-12T01:45:33.537Z,10.32
2023-05-12T01:48:02.999Z,10.05
2023-05-12T01:50:32.599Z,10.15
2023-05-12T01:53:02.761Z,8.65
2023-05-12T01:55:34.514Z,11.00
2023-05-12T01:58:04.019Z,10.38
2023-05-12T02:00:34.240Z,9.30
2023-05-12T02:03:04.097Z,9.30
2023-05-12T02:05:33.720Z,10.28
2023-05-12T02:08:04.342Z,9.65
2023-05-12T02:10:34.000Z,10.78
2023-05-12T02:13:03.336Z,10.25
2023-05-12T02:15:33.672Z,10.80
2023-05-12T02:18:04.576Z,9.73
2023-05-12T02:20:34.568Z,12.25
2023-05-12T02:23:04.465Z,11.57
2023-05-12T02:25:34.743Z,10.72
2023-05-12T02:28:04.951Z,11.83
2023-05-12T02:30:35.124Z,10.05
2023-05-12T02:33:05.972Z,10.10
2023-05-12T02:35:36.080Z,10.23
2023-05-12T02:38:05.380Z,10.53
2023-05-12T02:40:34.958Z,10.32
2023-05-12T02:43:04.468Z,11.83
2023-05-12T02:45:34.104Z,9.70
2023-05-12T02:48:03.482Z,11.78
2023-05-12T02:50:33.130Z,11.10
2023-05-12T02:53:02.402Z,9.58
2023-05-12T02:55:32.142Z,13.62
2023-05-12T02:58:01.525Z,9.08
2023-05-12T03:00:31.130Z,9.53
2023-05-12T03:03:00.700Z,9.50
2023-05-12T03:05:30.719Z,9.20
2023-05-12T03:07:59.992Z,19.98
2023-05-12T03:10:29.440Z,8.23
2023-05-12T03:12:58.740Z,9.90
2023-05-12T03:15:28.561Z,8.28
2023-05-12T03:17:58.086Z,8.60
2023-05-12T03:20:27.801Z,10.43
2023-05-12T03:22:57.136Z,10.50
2023-05-12T03:25:27.118Z,11.53
2023-05-12T03:27:56.458Z,12.37
2023-05-12T03:30:26.224Z,12.73
2023-05-12T03:32:56.235Z,11.55
2023-05-12T03:35:26.173Z,13.38
2023-05-12T03:37:55.761Z,12.73
2023-05-12T03:40:25.289Z,13.25
2023-05-12T03:42:54.876Z,14.28
2023-05-12T03:45:24.205Z,13.55
2023-05-12T03:47:53.734Z,12.73
2023-05-12T03:50:23.434Z,13.08
2023-05-12T03:52:54.363Z,13.48
2023-05-12T03:55:24.012Z,14.00
2023-05-12T03:57:53.388Z,11.78
2023-05-12T04:00:23.048Z,15.43
2023-05-12T04:02:52.496Z,15.32
2023-05-12T04:05:22.161Z,11.63
2023-05-12T04:07:51.636Z,12.43
2023-05-12T04:10:21.654Z,13.85
2023-05-12T04:12:53.054Z,13.32
2023-05-12T04:15:22.527Z,14.18
2023-05-12T04:17:52.550Z,15.53
2023-05-12T04:20:22.402Z,12.37
2023-05-12T04:22:52.041Z,15.03
2023-05-12T04:25:21.499Z,13.20
2023-05-12T04:27:51.018Z,15.00
2023-05-12T04:30:22.187Z,15.08
2023-05-12T04:32:52.089Z,11.88
2023-05-12T04:35:21.997Z,15.60
2023-05-12T04:37:51.793Z,14.87
2023-05-12T04:40:21.653Z,12.88
2023-05-12T04:42:51.833Z,13.53
2023-05-12T04:45:21.522Z,11.00
2023-05-12T04:47:51.412Z,13.48
2023-05-12T04:50:21.293Z,15.78
2023-05-12T04:52:51.226Z,11.40
2023-05-12T04:55:20.900Z,13.80
2023-05-12T04:57:50.946Z,13.25
2023-05-12T05:00:21.304Z,15.85
2023-05-12T05:02:51.058Z,14.23
2023-05-12T05:05:20.810Z,17.12
2023-05-12T05:07:50.392Z,19.95
2023-05-12T05:10:19.849Z,18.00
2023-05-12T05:12:49.221Z,21.48
2023-05-12T05:15:19.985Z,19.35
2023-05-12T05:17:51.321Z,22.20
2023-05-12T05:20:21.924Z,26.25
2023-05-12T05:22:52.311Z,25.80
2023-05-12T05:25:21.759Z,24.35
2023-05-12T05:27:51.368Z,24.37
2023-05-12T05:30:21.042Z,30.62
2023-05-12T05:32:50.549Z,31.55
2023-05-12T05:35:20.407Z,29.50
2023-05-12T05:37:52.770Z,27.40
2023-05-12T05:40:23.407Z,34.80
2023-05-12T05:42:53.196Z,27.70
2023-05-12T05:45:22.757Z,32.53
2023-05-12T05:47:53.384Z,35.55
2023-05-12T05:50:23.579Z,31.62
2023-05-12T05:52:55.264Z,35.45
2023-05-12T05:55:25.296Z,36.00
2023-05-12T05:57:55.301Z,33.70
2023-05-12T06:00:25.029Z,36.80
2023-05-12T06:02:54.869Z,35.40
2023-05-12T06:05:24.510Z,35.25
2023-05-12T06:07:54.015Z,30.12
2023-05-12T06:10:23.948Z,33.70
2023-05-12T06:12:53.241Z,34.43
2023-05-12T06:15:23.476Z,32.42
2023-05-12T06:17:52.916Z,34.70
2023-05-12T06:20:23.375Z,35.75
2023-05-12T06:22:52.967Z,33.90
2023-05-12T06:25:22.776Z,34.55
2023-05-12T06:27:55.545Z,37.73
2023-05-12T06:32:56.265Z,37.23
2023-05-12T06:35:26.176Z,39.98
2023-05-12T06:37:55.549Z,38.30
2023-05-12T06:40:25.116Z,37.90
2023-05-12T06:42:55.338Z,43.00
2023-05-12T06:45:26.333Z,44.03
2023-05-12T06:47:57.721Z,40.83
2023-05-12T06:50:28.802Z,42.40
2023-05-12T06:52:58.126Z,38.35
2023-05-12T06:55:27.535Z,40.03
2023-05-12T06:57:57.115Z,43.17
2023-05-12T07:00:27.926Z,40.75
2023-05-12T07:02:57.825Z,41.73
2023-05-12T07:05:27.867Z,34.20
2023-05-12T07:07:57.305Z,37.88
2023-05-12T07:10:26.826Z,36.85
2023-05-12T07:12:56.186Z,38.83
2023-05-12T07:15:25.557Z,40.38
2023-05-12T07:17:55.959Z,36.58
2023-05-12T07:20:25.622Z,35.55
2023-05-12T07:22:56.548Z,35.43
2023-05-12T07:25:25.910Z,35.60
2023-05-12T07:27:55.397Z,35.23
2023-05-12T07:30:25.603Z,30.50
2023-05-12T07:32:54.967Z,30.60
2023-05-12T07:35:24.481Z,28.12
2023-05-12T07:37:53.778Z,30.65
2023-05-12T07:40:23.133Z,27.55
2023-05-12T07:42:52.976Z,28.92
2023-05-12T07:45:25.782Z,29.55
2023-05-12T07:47:55.120Z,28.57
2023-05-12T07:50:24.651Z,28.65
2023-05-12T07:52:54.457Z,28.83
2023-05-12T07:55:25.654Z,25.80
2023-05-12T07:57:54.956Z,29.98
2023-05-12T08:00:24.683Z,27.32
2023-05-12T08:02:54.681Z,26.17
2023-05-12T08:05:24.522Z,22.55
2023-05-12T08:07:54.080Z,23.83
2023-05-12T08:10:25.356Z,25.75
2023-05-12T08:12:54.761Z,22.37
2023-05-12T08:15:24.101Z,20.27
2023-05-12T08:17:53.998Z,21.52
2023-05-12T08:20:23.382Z,22.70
2023-05-12T08:22:53.066Z,19.07
2023-05-12T08:25:22.698Z,20.10
2023-05-12T08:27:52.067Z,18.23
2023-05-12T08:30:21.583Z,15.13
2023-05-12T08:32:51.200Z,16.67
2023-05-12T08:35:20.983Z,15.30
2023-05-12T08:37:50.628Z,16.97
2023-05-12T08:40:22.456Z,13.45
2023-05-12T08:42:59.288Z,13.70
2023-05-12T08:45:29.524Z,12.15
2023-05-12T08:48:00.201Z,11.97
2023-05-12T08:50:30.671Z,10.68
2023-05-12T08:53:00.399Z,10.15
2023-05-12T08:55:33.600Z,8.98
2023-05-12T08:58:02.361Z,9.48
2023-05-12T09:00:33.743Z,9.20
2023-05-12T09:03:05.262Z,9.25
2023-05-12T09:05:35.588Z,10.75
2023-05-12T09:08:06.346Z,8.68
2023-05-12T09:10:35.966Z,13.25
2023-05-12T09:13:20.866Z,13.90
2023-05-12T09:15:52.109Z,11.60
2023-05-12T09:18:21.888Z,12.90
2023-05-12T09:20:51.172Z,9.20
2023-05-12T09:23:23.057Z,9.05
2023-05-12T09:26:01.953Z,9.03
2023-05-12T09:28:39.939Z,9.50
2023-05-12T09:31:20.651Z,9.68
2023-05-12T09:33:52.308Z,8.20
2023-05-12T09:36:25.329Z,7.30
2023-05-12T09:39:05.923Z,6.70
2023-05-12T09:41:38.766Z,8.35
2023-05-12T09:44:11.699Z,8.15
2023-05-12T09:46:41.095Z,6.28
2023-05-12T09:49:10.556Z,5.65
2023-05-12T09:51:41.496Z,6.85
2023-05-12T09:54:10.754Z,6.95
2023-05-12T09:56:40.487Z,4.37
2023-05-12T09:59:10.655Z,4.78
2023-05-12T10:01:40.164Z,3.42
2023-05-12T10:04:10.365Z,7.45
2023-05-12T10:06:43.506Z,5.55
2023-05-12T10:09:15.952Z,6.47
2023-05-12T10:14:15.443Z,3.92
2023-05-12T10:16:47.163Z,5.70
2023-05-12T10:19:17.010Z,5.28
2023-05-12T10:21:49.207Z,5.15
2023-05-12T10:24:19.155Z,5.72
2023-05-12T10:26:48.431Z,6.37
2023-05-12T10:29:18.341Z,5.17
2023-05-12T10:31:48.366Z,5.28
2023-05-12T10:34:19.146Z,4.28
2023-05-12T10:36:50.279Z,3.90
2023-05-12T10:39:20.160Z,3.50
2023-05-12T10:41:51.086Z,3.98
2023-05-12T10:44:29.004Z,4.08
2023-05-12T10:47:02.620Z,5.20
2023-05-12T10:49:42.291Z,5.12
2023-05-12T10:52:17.127Z,3.62
2023-05-12T10:54:46.417Z,3.85
2023-05-12T10:57:19.383Z,3.62
2023-05-12T10:59:54.546Z,3.92
2023-05-12T11:02:28.165Z,3.33
2023-05-12T11:05:05.292Z,3.27
2023-05-12T11:07:35.958Z,4.12
2023-05-12T11:10:08.037Z,3.47
2023-05-12T11:12:38.016Z,15.25
2023-05-12T11:15:08.810Z,4.45
2023-05-12T11:17:41.882Z,4.75
2023-05-12T11:20:14.172Z,3.08
2023-05-12T11:22:44.289Z,2.50
2023-05-12T11:25:14.862Z,5.37
2023-05-12T11:27:51.364Z,3.83
2023-05-12T11:30:21.409Z,3.00
2023-05-12T11:32:53.934Z,2.22
2023-05-12T11:35:23.507Z,2.30
2023-05-12T11:37:53.560Z,2.10
2023-05-12T11:40:23.860Z,3.37
2023-05-12T11:42:54.771Z,7.37
2023-05-12T11:45:26.853Z,2.10
2023-05-12T11:48:08.880Z,2.42
2023-05-12T11:50:42.802Z,4.50
2023-05-12T11:53:15.119Z,2.92
2023-05-12T11:55:52.829Z,2.42
2023-05-12T11:58:29.975Z,3.00
2023-05-12T12:01:02.595Z,3.15
2023-05-12T12:06:05.573Z,3.47
2023-05-12T12:08:36.786Z,3.15
2023-05-12T12:11:07.587Z,2.90
2023-05-12T12:13:36.919Z,3.42
2023-05-12T12:16:06.780Z,2.40
2023-05-12T12:18:36.394Z,2.40
2023-05-12T12:21:06.310Z,3.08
2023-05-12T12:23:47.687Z,3.60
2023-05-12T12:26:07.000Z,3.55
2023-05-12T12:28:36.657Z,2.40
2023-05-12T12:31:06.113Z,3.55
2023-05-12T12:33:35.457Z,8.20
2023-05-12T12:36:05.778Z,2.67
2023-05-12T12:38:35.295Z,3.05
2023-05-12T12:41:05.320Z,3.02
2023-05-12T12:43:34.844Z,2.30
2023-05-12T12:46:04.163Z,2.35
2023-05-12T12:48:34.077Z,2.22
2023-05-12T12:51:05.280Z,2.15
2023-05-12T12:53:35.794Z,2.85
2023-05-12T12:56:06.172Z,2.20
2023-05-12T12:58:35.621Z,2.72
2023-05-12T13:01:05.282Z,2.30
2023-05-12T13:03:34.957Z,2.72
2023-05-12T13:06:04.539Z,2.60
2023-05-12T13:08:34.154Z,3.27
2023-05-12T13:11:04.191Z,3.05
2023-05-12T13:13:33.698Z,2.00
2023-05-12T13:16:03.663Z,1.85
2023-05-12T13:18:33.145Z,3.30
2023-05-12T13:21:04.724Z,5.35
2023-05-12T13:23:34.044Z,5.42
2023-05-12T13:26:03.891Z,6.37
2023-05-12T13:28:33.607Z,7.55
2023-05-12T13:31:03.033Z,6.30
2023-05-12T13:33:32.715Z,6.75
2023-05-12T13:36:01.959Z,4.10
2023-05-12T13:38:32.274Z,4.53
2023-05-12T13:41:01.655Z,4.08
2023-05-12T13:43:30.934Z,4.75
2023-05-12T13:46:00.748Z,6.90
2023-05-12T13:48:30.135Z,8.33
2023-05-12T13:50:59.471Z,4.85
2023-05-12T13:53:28.850Z,5.22
2023-05-12T13:55:58.126Z,5.85
2023-05-12T13:58:27.659Z,7.30
2023-05-12T14:00:57.003Z,3.92
2023-05-12T14:03:26.753Z,3.92
2023-05-12T14:05:56.165Z,4.72
2023-05-12T14:08:25.757Z,3.83
2023-05-12T14:10:55.347Z,4.03
2023-05-12T14:13:26.250Z,3.87
2023-05-12T14:15:56.003Z,3.80
2023-05-12T14:18:26.251Z,4.75
2023-05-12T14:20:56.050Z,3.30
2023-05-12T14:23:25.304Z,3.42
2023-05-12T14:25:55.596Z,3.87
2023-05-12T14:28:25.152Z,4.53
2023-05-12T14:30:54.915Z,4.28
2023-05-12T14:33:24.243Z,2.75
2023-05-12T14:36:06.000Z,3.37
2023-05-12T14:38:24.911Z,2.50
2023-05-12T14:40:54.222Z,3.83
2023-05-12T14:43:23.472Z,3.40
2023-05-12T14:45:55.013Z,3.15
2023-05-12T14:48:28.084Z,4.93
2023-05-12T14:50:58.221Z,3.87
2023-05-12T14:53:27.544Z,3.25
2023-05-12T14:55:56.992Z,2.72
2023-05-12T14:58:26.606Z,4.75
2023-05-12T15:00:56.459Z,2.98
2023-05-12T15:03:26.080Z,2.62
2023-05-12T15:06:05.712Z,3.45
2023-05-12T15:08:26.428Z,3.15
2023-05-12T15:10:56.082Z,4.70
2023-05-12T15:13:26.005Z,3.12
2023-05-12T15:15:56.779Z,3.65
2023-05-12T15:18:26.571Z,3.40
2023-05-12T15:20:56.253Z,2.85
2023-05-12T15:23:25.699Z,2.65
2023-05-12T15:25:54.971Z,2.45
2023-05-12T15:28:24.542Z,2.77
2023-05-12T15:30:57.536Z,5.40
2023-05-12T15:33:27.265Z,3.00
2023-05-12T15:35:56.536Z,3.40
2023-05-12T15:38:25.960Z,4.35
2023-05-12T15:40:56.066Z,3.17
2023-05-12T15:43:25.645Z,3.33
2023-05-12T15:45:54.997Z,2.20
2023-05-12T15:48:24.758Z,2.22
2023-05-12T15:50:54.084Z,2.33
2023-05-12T15:53:24.033Z,3.08
2023-05-12T15:56:03.960Z,3.65
2023-05-12T15:58:33.840Z,2.98
2023-05-12T16:01:03.236Z,2.45
2023-05-12T16:03:32.642Z,3.95
2023-05-12T16:06:02.209Z,3.50
2023-05-12T16:08:31.920Z,3.12
2023-05-12T16:11:01.889Z,4.22
2023-05-12T16:13:31.570Z,4.10
2023-05-12T16:16:01.556Z,3.83
2023-05-12T16:18:31.932Z,3.27
2023-05-12T16:21:02.038Z,3.77
2023-05-12T16:23:31.632Z,3.40
2023-05-12T16:26:01.042Z,3.02
2023-05-12T16:28:31.935Z,3.60
2023-05-12T16:31:02.395Z,3.47
2023-05-12T16:33:31.928Z,4.50
2023-05-12T16:36:01.426Z,3.98
2023-05-12T16:38:32.674Z,3.77
2023-05-12T16:41:02.161Z,3.42
2023-05-12T16:43:31.546Z,6.17
2023-05-12T16:46:02.240Z,3.25
2023-05-12T16:48:33.459Z,3.12
2023-05-12T16:51:06.419Z,3.45
2023-05-12T16:53:36.472Z,2.83
2023-05-12T16:56:06.259Z,3.30
2023-05-12T16:58:36.216Z,2.95
2023-05-12T17:01:05.921Z,5.90
2023-05-12T17:03:35.341Z,3.40
2023-05-12T17:06:05.187Z,5.47
2023-05-12T17:08:37.358Z,4.03
2023-05-12T17:11:06.724Z,3.95
2023-05-12T17:13:39.090Z,4.12
2023-05-12T17:16:08.640Z,5.15
2023-05-12T17:21:11.657Z,14.75
2023-05-12T17:23:41.303Z,7.90
2023-05-12T17:26:10.825Z,5.92
2023-05-12T17:28:40.098Z,7.53
2023-05-12T17:31:10.929Z,6.62
2023-05-12T17:33:40.271Z,6.72
2023-05-12T17:36:13.313Z,7.83
2023-05-12T17:38:43.812Z,7.20
2023-05-12T17:41:13.669Z,8.38
2023-05-12T17:43:42.984Z,6.10
2023-05-12T17:46:12.532Z,7.80
2023-05-12T17:48:41.824Z,6.83
2023-05-12T17:51:11.296Z,9.45
2023-05-12T17:53:40.680Z,8.53
2023-05-12T17:56:10.421Z,10.88
2023-05-12T17:58:40.110Z,8.88
2023-05-12T18:01:09.489Z,9.60
2023-05-12T18:03:39.740Z,8.93
2023-05-12T18:06:10.927Z,8.88
2023-05-12T18:08:40.862Z,10.72
2023-05-12T18:11:10.198Z,11.55
2023-05-12T18:13:39.494Z,11.48
2023-05-12T18:16:18.259Z,12.65
2023-05-12T18:18:41.431Z,10.60
2023-05-12T18:21:10.792Z,11.57
2023-05-12T18:23:40.085Z,12.07
2023-05-12T18:26:09.563Z,11.68
2023-05-12T18:28:38.905Z,10.82
2023-05-12T18:31:15.883Z,12.13
2023-05-12T18:33:39.718Z,11.43
2023-05-12T18:36:09.759Z,10.93
2023-05-12T18:38:39.116Z,11.38
2023-05-12T18:41:08.796Z,13.25
2023-05-12T18:43:38.035Z,11.78
2023-05-12T18:46:07.448Z,12.88
2023-05-12T18:48:36.701Z,11.75
2023-05-12T18:51:06.846Z,13.15
2023-05-12T18:53:36.112Z,12.50
2023-05-12T18:56:05.604Z,10.72
2023-05-12T18:58:35.180Z,11.95
2023-05-12T19:01:05.299Z,11.45
2023-05-12T19:03:35.473Z,12.35
2023-05-12T19:06:05.217Z,12.07
2023-05-12T19:08:34.681Z,11.75
2023-05-12T19:11:04.770Z,12.98
2023-05-12T19:13:34.482Z,12.35
2023-05-12T19:16:03.890Z,11.08
2023-05-12T19:18:33.782Z,14.60
2023-05-12T19:21:03.798Z,12.65
2023-05-12T19:23:33.141Z,15.50
2023-05-12T19:26:02.798Z,11.68
2023-05-12T19:28:32.169Z,14.13
2023-05-12T19:31:01.847Z,12.93
2023-05-12T19:33:35.221Z,13.08
2023-05-12T19:36:04.769Z,11.03
2023-05-12T19:38:34.244Z,11.20
2023-05-12T19:41:03.620Z,12.88
2023-05-12T19:43:33.139Z,12.93
2023-05-12T19:46:02.813Z,14.15
2023-05-12T19:48:32.821Z,11.43
2023-05-12T19:51:02.378Z,11.88
2023-05-12T19:53:33.626Z,13.68
2023-05-12T19:56:03.068Z,12.40
2023-05-12T19:58:32.538Z,13.50
2023-05-12T20:01:02.047Z,11.50
2023-05-12T20:03:31.746Z,13.15
2023-05-12T20:06:01.298Z,12.78
2023-05-12T20:08:30.779Z,13.58
2023-05-12T20:11:00.556Z,12.45
2023-05-12T20:13:29.869Z,13.43
2023-05-12T20:15:59.391Z,12.82
2023-05-12T20:18:29.089Z,13.32
2023-05-12T20:20:58.860Z,12.53
2023-05-12T20:23:28.549Z,12.25
2023-05-12T20:25:58.276Z,13.83
2023-05-12T20:28:28.566Z,11.83
2023-05-12T20:30:58.852Z,13.88
2023-05-12T20:33:28.724Z,12.90
2023-05-12T20:35:58.187Z,13.55
2023-05-12T20:38:27.616Z,12.43
2023-05-12T20:40:57.249Z,12.20
2023-05-12T20:43:26.685Z,14.10
2023-05-12T20:45:56.593Z,13.83
2023-05-12T20:48:26.061Z,13.18
2023-05-12T20:50:56.784Z,15.35
2023-05-12T20:53:26.230Z,15.75
2023-05-12T20:55:56.268Z,15.00
2023-05-12T20:58:25.737Z,15.30
2023-05-12T21:00:55.257Z,15.00
2023-05-12T21:03:26.903Z,15.05
2023-05-12T21:05:56.774Z,16.00
2023-05-12T21:08:26.228Z,19.87
2023-05-12T21:10:55.948Z,20.00
2023-05-12T21:13:25.394Z,19.15
2023-05-12T21:15:54.999Z,19.92
2023-05-12T21:18:24.477Z,18.75
2023-05-12T21:20:54.297Z,18.32
2023-05-12T21:23:23.694Z,19.87
2023-05-12T21:25:56.195Z,20.92
2023-05-12T21:28:25.514Z,21.02
2023-05-12T21:30:56.242Z,21.93
2023-05-12T21:33:25.548Z,21.65
2023-05-12T21:35:55.008Z,22.73
2023-05-12T21:38:24.388Z,22.77
2023-05-12T21:40:56.159Z,23.90
2023-05-12T21:43:25.999Z,23.80
2023-05-12T21:45:55.835Z,26.02
2023-05-12T21:48:25.634Z,27.98
2023-05-12T21:50:59.935Z,28.83
2023-05-12T21:53:30.356Z,26.87
2023-05-12T21:56:00.329Z,29.12
2023-05-12T21:58:29.763Z,29.65
2023-05-12T22:00:59.928Z,29.92
2023-05-12T22:03:29.589Z,32.55
2023-05-12T22:05:59.282Z,32.55
2023-05-12T22:08:28.828Z,28.70
2023-05-12T22:10:58.301Z,30.68
2023-05-12T22:13:27.984Z,28.25
2023-05-12T22:15:57.968Z,31.93
2023-05-12T22:18:27.546Z,28.50
2023-05-12T22:20:56.972Z,28.32
2023-05-12T22:23:26.845Z,25.52
2023-05-12T22:25:56.680Z,26.07
2023-05-12T22:28:26.226Z,24.45
2023-05-12T22:30:55.584Z,22.93
2023-05-12T22:33:25.338Z,26.45
2023-05-12T22:35:54.866Z,26.70
2023-05-12T22:38:24.911Z,25.40
2023-05-12T22:40:54.203Z,22.20
2023-05-12T22:43:23.896Z,25.30
2023-05-12T22:45:55.257Z,22.60
2023-05-12T22:48:24.762Z,25.23
2023-05-12T22:50:56.741Z,25.35
2023-05-12T22:53:26.357Z,25.12
2023-05-12T22:55:56.029Z,22.48
2023-05-12T22:58:25.413Z,23.75
2023-05-12T23:00:55.308Z,24.45
2023-05-12T23:03:24.954Z,22.70
2023-05-12T23:05:54.325Z,24.32
2023-05-12T23:08:23.603Z,22.67
2023-05-12T23:10:52.964Z,23.52
2023-05-12T23:13:22.595Z,21.12
2023-05-12T23:15:51.922Z,20.92
2023-05-12T23:18:21.572Z,23.42
2023-05-12T23:20:50.940Z,19.62
2023-05-12T23:23:20.443Z,22.62
2023-05-12T23:25:50.015Z,20.52
2023-05-12T23:28:19.369Z,20.62
2023-05-12T23:30:49.101Z,20.82
2023-05-12T23:33:18.478Z,19.80
2023-05-12T23:35:47.898Z,22.10
2023-05-12T23:38:17.269Z,20.05
2023-05-12T23:40:46.674Z,23.10
2023-05-12T23:43:15.977Z,18.75
2023-05-12T23:45:45.397Z,21.05
2023-05-12T23:48:14.714Z,20.95
2023-05-12T23:50:44.027Z,20.43
2023-05-12T23:53:13.608Z,19.23
2023-05-12T23:55:43.683Z,20.23
2023-05-12T23:58:13.004Z,19.60
